Franconia, New Hampshire
Current Conditions -  °F | °C
As of 11:52 PM on Tuesday 25 Nov 2014 (Local Time) from KHIE Reporting Station
Overcast Overcast  
Wind Chill:   Ceiling: 4900
Heat Index:   Visibility: 10mi
Dew Point: -4°   Wind: 7mph
Humidity: 55%   Direction: 220°SW
Pressure: 30.06"   Gusts: NA
Location:  44.23°N, 71.75°W
Report Text: KHIE 260452Z AUTO 22006KT 10SM OVC049 04/M04 A3006 RMK AO2 SLP187 T00441039 401561022
Loading
Personal Weather Stations






























Interactive Weather Map New forecast layout! Learn more

10-Day Weather Forecast

Advertisements
Track Severe Weather on mobile